sensor_id;sensor_type;location;lat;lon;timestamp;temperature;humidity
7341;DHT22;6870;50.944;6.932;2023-12-20T00:02:05;19.80;39.00
7341;DHT22;6870;50.944;6.932;2023-12-20T00:04:33;19.70;39.10
7341;DHT22;6870;50.944;6.932;2023-12-20T00:07:01;19.80;39.40
7341;DHT22;6870;50.944;6.932;2023-12-20T00:09:30;20.00;40.10
7341;DHT22;6870;50.944;6.932;2023-12-20T00:11:58;19.40;39.30
7341;DHT22;6870;50.944;6.932;2023-12-20T00:14:27;19.80;39.80
7341;DHT22;6870;50.944;6.932;2023-12-20T00:16:55;20.00;40.20
7341;DHT22;6870;50.944;6.932;2023-12-20T00:19:23;19.60;39.70
7341;DHT22;6870;50.944;6.932;2023-12-20T00:21:52;19.40;39.90
7341;DHT22;6870;50.944;6.932;2023-12-20T00:24:20;19.60;40.00
7341;DHT22;6870;50.944;6.932;2023-12-20T00:26:48;19.50;40.40
7341;DHT22;6870;50.944;6.932;2023-12-20T00:29:16;19.60;40.40
7341;DHT22;6870;50.944;6.932;2023-12-20T00:31:45;19.70;41.00
7341;DHT22;6870;50.944;6.932;2023-12-20T00:34:13;19.70;40.70
7341;DHT22;6870;50.944;6.932;2023-12-20T00:36:41;19.60;40.70
7341;DHT22;6870;50.944;6.932;2023-12-20T00:39:10;19.60;40.90
7341;DHT22;6870;50.944;6.932;2023-12-20T00:41:38;19.50;41.10
7341;DHT22;6870;50.944;6.932;2023-12-20T00:44:08;19.40;41.10
7341;DHT22;6870;50.944;6.932;2023-12-20T00:46:36;19.50;40.90
7341;DHT22;6870;50.944;6.932;2023-12-20T00:49:05;19.60;41.20
7341;DHT22;6870;50.944;6.932;2023-12-20T00:51:33;19.50;41.50
7341;DHT22;6870;50.944;6.932;2023-12-20T00:54:01;19.70;41.70
7341;DHT22;6870;50.944;6.932;2023-12-20T00:56:30;19.60;42.00
7341;DHT22;6870;50.944;6.932;2023-12-20T00:58:58;19.70;42.00
7341;DHT22;6870;50.944;6.932;2023-12-20T01:01:26;19.60;42.40
7341;DHT22;6870;50.944;6.932;2023-12-20T01:03:56;19.70;42.00
7341;DHT22;6870;50.944;6.932;2023-12-20T01:06:26;19.70;42.00
7341;DHT22;6870;50.944;6.932;2023-12-20T01:08:54;19.60;41.90
7341;DHT22;6870;50.944;6.932;2023-12-20T01:11:22;19.50;41.70
7341;DHT22;6870;50.944;6.932;2023-12-20T01:13:50;19.50;42.10
7341;DHT22;6870;50.944;6.932;2023-12-20T01:16:18;19.60;42.00
7341;DHT22;6870;50.944;6.932;2023-12-20T01:18:47;19.90;42.30
7341;DHT22;6870;50.944;6.932;2023-12-20T01:21:16;20.10;42.20
7341;DHT22;6870;50.944;6.932;2023-12-20T01:23:44;19.80;41.70
7341;DHT22;6870;50.944;6.932;2023-12-20T01:26:12;20.10;41.70
7341;DHT22;6870;50.944;6.932;2023-12-20T01:28:42;20.00;41.50
7341;DHT22;6870;50.944;6.932;2023-12-20T01:31:10;20.10;41.60
7341;DHT22;6870;50.944;6.932;2023-12-20T01:33:39;20.00;41.30
7341;DHT22;6870;50.944;6.932;2023-12-20T01:36:07;20.10;41.30
7341;DHT22;6870;50.944;6.932;2023-12-20T01:38:35;20.20;41.30
7341;DHT22;6870;50.944;6.932;2023-12-20T01:41:05;19.90;41.00
7341;DHT22;6870;50.944;6.932;2023-12-20T01:43:33;20.00;41.60
7341;DHT22;6870;50.944;6.932;2023-12-20T01:46:16;20.20;41.40
7341;DHT22;6870;50.944;6.932;2023-12-20T01:48:47;20.30;41.50
7341;DHT22;6870;50.944;6.932;2023-12-20T01:51:16;20.10;41.60
7341;DHT22;6870;50.944;6.932;2023-12-20T01:53:44;20.40;41.70
7341;DHT22;6870;50.944;6.932;2023-12-20T01:56:15;20.30;41.20
7341;DHT22;6870;50.944;6.932;2023-12-20T01:58:46;20.20;41.00
7341;DHT22;6870;50.944;6.932;2023-12-20T02:01:16;20.20;41.40
7341;DHT22;6870;50.944;6.932;2023-12-20T02:03:45;20.10;41.00
7341;DHT22;6870;50.944;6.932;2023-12-20T02:06:13;20.50;41.20
7341;DHT22;6870;50.944;6.932;2023-12-20T02:08:44;20.10;41.00
7341;DHT22;6870;50.944;6.932;2023-12-20T02:11:14;20.30;40.70
7341;DHT22;6870;50.944;6.932;2023-12-20T02:13:42;20.50;40.90
7341;DHT22;6870;50.944;6.932;2023-12-20T02:16:11;20.40;40.70
7341;DHT22;6870;50.944;6.932;2023-12-20T02:18:39;20.50;40.90
7341;DHT22;6870;50.944;6.932;2023-12-20T02:21:09;20.50;40.90
7341;DHT22;6870;50.944;6.932;2023-12-20T02:23:39;20.30;40.70
7341;DHT22;6870;50.944;6.932;2023-12-20T02:26:07;20.00;40.70
7341;DHT22;6870;50.944;6.932;2023-12-20T02:28:35;20.30;41.10
7341;DHT22;6870;50.944;6.932;2023-12-20T02:31:03;20.20;41.20
7341;DHT22;6870;50.944;6.932;2023-12-20T02:33:31;20.50;41.60
7341;DHT22;6870;50.944;6.932;2023-12-20T02:36:00;20.20;41.50
7341;DHT22;6870;50.944;6.932;2023-12-20T02:38:28;20.20;42.00
7341;DHT22;6870;50.944;6.932;2023-12-20T02:40:57;20.40;42.10
7341;DHT22;6870;50.944;6.932;2023-12-20T02:43:25;20.30;42.00
7341;DHT22;6870;50.944;6.932;2023-12-20T02:45:53;20.10;41.90
7341;DHT22;6870;50.944;6.932;2023-12-20T02:48:22;20.20;42.20
7341;DHT22;6870;50.944;6.932;2023-12-20T02:50:50;20.00;42.20
7341;DHT22;6870;50.944;6.932;2023-12-20T02:53:19;20.30;42.00
7341;DHT22;6870;50.944;6.932;2023-12-20T02:55:47;20.00;41.70
7341;DHT22;6870;50.944;6.932;2023-12-20T02:58:16;20.20;41.50
7341;DHT22;6870;50.944;6.932;2023-12-20T03:00:45;20.20;42.20
7341;DHT22;6870;50.944;6.932;2023-12-20T03:03:13;20.20;41.80
7341;DHT22;6870;50.944;6.932;2023-12-20T03:05:41;20.30;42.10
7341;DHT22;6870;50.944;6.932;2023-12-20T03:08:09;20.20;42.10
7341;DHT22;6870;50.944;6.932;2023-12-20T03:10:38;20.30;42.00
7341;DHT22;6870;50.944;6.932;2023-12-20T03:13:06;20.20;42.20
7341;DHT22;6870;50.944;6.932;2023-12-20T03:15:35;20.20;42.20
7341;DHT22;6870;50.944;6.932;2023-12-20T03:18:04;20.10;42.10
7341;DHT22;6870;50.944;6.932;2023-12-20T03:20:33;20.20;42.20
7341;DHT22;6870;50.944;6.932;2023-12-20T03:23:01;20.00;42.20
7341;DHT22;6870;50.944;6.932;2023-12-20T03:25:29;20.30;42.30
7341;DHT22;6870;50.944;6.932;2023-12-20T03:27:57;20.30;42.70
7341;DHT22;6870;50.944;6.932;2023-12-20T03:30:29;20.00;42.00
7341;DHT22;6870;50.944;6.932;2023-12-20T03:32:59;20.50;42.70
7341;DHT22;6870;50.944;6.932;2023-12-20T03:35:27;20.30;42.70
7341;DHT22;6870;50.944;6.932;2023-12-20T03:37:55;20.10;42.30
7341;DHT22;6870;50.944;6.932;2023-12-20T03:40:26;20.20;42.40
7341;DHT22;6870;50.944;6.932;2023-12-20T03:42:54;20.20;42.40
7341;DHT22;6870;50.944;6.932;2023-12-20T03:45:22;20.30;42.40
7341;DHT22;6870;50.944;6.932;2023-12-20T03:47:50;20.10;42.40
7341;DHT22;6870;50.944;6.932;2023-12-20T03:50:23;20.30;42.50
7341;DHT22;6870;50.944;6.932;2023-12-20T03:52:51;20.10;42.40
7341;DHT22;6870;50.944;6.932;2023-12-20T03:55:19;20.20;42.80
7341;DHT22;6870;50.944;6.932;2023-12-20T03:57:47;19.80;42.70
7341;DHT22;6870;50.944;6.932;2023-12-20T04:00:16;20.20;43.10
7341;DHT22;6870;50.944;6.932;2023-12-20T04:02:44;19.70;43.30
7341;DHT22;6870;50.944;6.932;2023-12-20T04:05:12;19.80;43.00
7341;DHT22;6870;50.944;6.932;2023-12-20T04:07:42;20.10;43.50
7341;DHT22;6870;50.944;6.932;2023-12-20T04:10:13;19.80;42.70
7341;DHT22;6870;50.944;6.932;2023-12-20T04:12:44;20.00;43.20
7341;DHT22;6870;50.944;6.932;2023-12-20T04:15:12;19.80;43.00
7341;DHT22;6870;50.944;6.932;2023-12-20T04:17:40;19.70;43.00
7341;DHT22;6870;50.944;6.932;2023-12-20T04:20:11;20.10;43.50
7341;DHT22;6870;50.944;6.932;2023-12-20T04:22:39;20.10;44.30
7341;DHT22;6870;50.944;6.932;2023-12-20T04:25:10;20.00;43.80
7341;DHT22;6870;50.944;6.932;2023-12-20T04:27:38;20.00;44.10
7341;DHT22;6870;50.944;6.932;2023-12-20T04:30:07;19.60;43.50
7341;DHT22;6870;50.944;6.932;2023-12-20T04:32:36;19.80;44.10
7341;DHT22;6870;50.944;6.932;2023-12-20T04:35:07;19.70;43.90
7341;DHT22;6870;50.944;6.932;2023-12-20T04:37:36;19.90;44.50
7341;DHT22;6870;50.944;6.932;2023-12-20T04:40:07;19.90;44.50
7341;DHT22;6870;50.944;6.932;2023-12-20T04:42:37;19.70;44.20
7341;DHT22;6870;50.944;6.932;2023-12-20T04:45:06;20.00;44.60
7341;DHT22;6870;50.944;6.932;2023-12-20T04:47:36;19.90;44.40
7341;DHT22;6870;50.944;6.932;2023-12-20T04:50:05;19.80;44.40
7341;DHT22;6870;50.944;6.932;2023-12-20T04:52:34;19.80;44.50
7341;DHT22;6870;50.944;6.932;2023-12-20T04:55:03;19.80;44.50
7341;DHT22;6870;50.944;6.932;2023-12-20T04:57:31;19.70;44.50
7341;DHT22;6870;50.944;6.932;2023-12-20T05:00:01;20.10;44.70
7341;DHT22;6870;50.944;6.932;2023-12-20T05:02:30;20.10;44.70
7341;DHT22;6870;50.944;6.932;2023-12-20T05:04:58;20.30;44.40
7341;DHT22;6870;50.944;6.932;2023-12-20T05:07:26;20.10;44.40
7341;DHT22;6870;50.944;6.932;2023-12-20T05:09:54;20.00;43.30
7341;DHT22;6870;50.944;6.932;2023-12-20T05:12:24;20.10;43.80
7341;DHT22;6870;50.944;6.932;2023-12-20T05:14:52;20.40;43.90
7341;DHT22;6870;50.944;6.932;2023-12-20T05:17:22;20.60;44.10
7341;DHT22;6870;50.944;6.932;2023-12-20T05:19:50;20.20;43.20
7341;DHT22;6870;50.944;6.932;2023-12-20T05:22:18;20.20;43.40
7341;DHT22;6870;50.944;6.932;2023-12-20T05:24:47;20.60;43.40
7341;DHT22;6870;50.944;6.932;2023-12-20T05:27:15;20.00;42.90
7341;DHT22;6870;50.944;6.932;2023-12-20T05:29:43;20.20;43.40
7341;DHT22;6870;50.944;6.932;2023-12-20T05:32:11;20.10;42.80
7341;DHT22;6870;50.944;6.932;2023-12-20T05:34:41;20.10;42.80
7341;DHT22;6870;50.944;6.932;2023-12-20T05:37:09;20.20;43.10
7341;DHT22;6870;50.944;6.932;2023-12-20T05:39:38;20.30;43.20
7341;DHT22;6870;50.944;6.932;2023-12-20T05:42:06;20.30;43.50
7341;DHT22;6870;50.944;6.932;2023-12-20T05:44:34;20.20;43.10
7341;DHT22;6870;50.944;6.932;2023-12-20T05:47:03;20.10;42.70
7341;DHT22;6870;50.944;6.932;2023-12-20T05:49:31;20.60;43.50
7341;DHT22;6870;50.944;6.932;2023-12-20T05:52:01;20.20;42.90
7341;DHT22;6870;50.944;6.932;2023-12-20T05:54:29;20.30;43.00
7341;DHT22;6870;50.944;6.932;2023-12-20T05:56:57;20.40;43.20
7341;DHT22;6870;50.944;6.932;2023-12-20T05:59:25;20.60;43.60
7341;DHT22;6870;50.944;6.932;2023-12-20T06:01:53;20.20;43.20
7341;DHT22;6870;50.944;6.932;2023-12-20T06:04:21;20.10;43.00
7341;DHT22;6870;50.944;6.932;2023-12-20T06:06:49;20.40;43.40
7341;DHT22;6870;50.944;6.932;2023-12-20T06:09:19;20.30;43.00
7341;DHT22;6870;50.944;6.932;2023-12-20T06:11:47;20.30;43.30
7341;DHT22;6870;50.944;6.932;2023-12-20T06:14:15;20.20;42.90
7341;DHT22;6870;50.944;6.932;2023-12-20T06:16:43;20.30;43.30
7341;DHT22;6870;50.944;6.932;2023-12-20T06:19:11;20.30;43.80
7341;DHT22;6870;50.944;6.932;2023-12-20T06:21:40;20.20;43.70
7341;DHT22;6870;50.944;6.932;2023-12-20T06:24:11;20.40;44.10
7341;DHT22;6870;50.944;6.932;2023-12-20T06:26:40;20.30;44.10
7341;DHT22;6870;50.944;6.932;2023-12-20T06:29:08;20.20;43.60
7341;DHT22;6870;50.944;6.932;2023-12-20T06:31:36;20.20;43.90
7341;DHT22;6870;50.944;6.932;2023-12-20T06:34:04;20.20;44.80
7341;DHT22;6870;50.944;6.932;2023-12-20T06:36:32;20.20;44.90
7341;DHT22;6870;50.944;6.932;2023-12-20T06:39:00;19.80;44.10
7341;DHT22;6870;50.944;6.932;2023-12-20T06:41:28;19.90;42.90
7341;DHT22;6870;50.944;6.932;2023-12-20T06:43:58;19.90;41.90
7341;DHT22;6870;50.944;6.932;2023-12-20T06:46:26;20.00;41.50
7341;DHT22;6870;50.944;6.932;2023-12-20T06:48:54;20.10;40.90
7341;DHT22;6870;50.944;6.932;2023-12-20T06:51:22;19.90;39.90
7341;DHT22;6870;50.944;6.932;2023-12-20T06:53:52;20.00;38.50
7341;DHT22;6870;50.944;6.932;2023-12-20T06:56:19;19.90;38.00
7341;DHT22;6870;50.944;6.932;2023-12-20T06:58:47;19.90;37.90
7341;DHT22;6870;50.944;6.932;2023-12-20T07:01:16;19.70;38.20
7341;DHT22;6870;50.944;6.932;2023-12-20T07:03:45;19.70;38.00
7341;DHT22;6870;50.944;6.932;2023-12-20T07:06:13;19.60;38.30
7341;DHT22;6870;50.944;6.932;2023-12-20T07:08:43;19.90;38.90
7341;DHT22;6870;50.944;6.932;2023-12-20T07:11:11;19.60;38.80
7341;DHT22;6870;50.944;6.932;2023-12-20T07:13:39;19.50;38.50
7341;DHT22;6870;50.944;6.932;2023-12-20T07:16:07;19.50;38.90
7341;DHT22;6870;50.944;6.932;2023-12-20T07:18:37;19.80;39.20
7341;DHT22;6870;50.944;6.932;2023-12-20T07:21:05;19.70;38.90
7341;DHT22;6870;50.944;6.932;2023-12-20T07:23:34;19.50;39.10
7341;DHT22;6870;50.944;6.932;2023-12-20T07:26:02;19.80;40.10
7341;DHT22;6870;50.944;6.932;2023-12-20T07:28:31;19.70;39.50
7341;DHT22;6870;50.944;6.932;2023-12-20T07:31:00;19.40;38.90
7341;DHT22;6870;50.944;6.932;2023-12-20T07:33:28;19.60;39.00
7341;DHT22;6870;50.944;6.932;2023-12-20T07:36:06;19.50;38.50
7341;DHT22;6870;50.944;6.932;2023-12-20T07:38:35;19.50;38.30
7341;DHT22;6870;50.944;6.932;2023-12-20T07:41:03;19.50;39.30
7341;DHT22;6870;50.944;6.932;2023-12-20T07:43:31;19.70;38.60
7341;DHT22;6870;50.944;6.932;2023-12-20T07:46:04;19.40;38.10
7341;DHT22;6870;50.944;6.932;2023-12-20T07:48:34;19.60;39.50
7341;DHT22;6870;50.944;6.932;2023-12-20T07:51:02;19.50;39.00
7341;DHT22;6870;50.944;6.932;2023-12-20T07:53:32;19.60;39.00
7341;DHT22;6870;50.944;6.932;2023-12-20T07:56:00;19.50;38.70
7341;DHT22;6870;50.944;6.932;2023-12-20T07:58:28;19.70;38.80
7341;DHT22;6870;50.944;6.932;2023-12-20T08:01:16;19.70;38.90
7341;DHT22;6870;50.944;6.932;2023-12-20T08:03:45;19.60;39.00
7341;DHT22;6870;50.944;6.932;2023-12-20T08:06:13;19.70;39.50
7341;DHT22;6870;50.944;6.932;2023-12-20T08:08:42;19.70;38.80
7341;DHT22;6870;50.944;6.932;2023-12-20T08:11:11;19.50;39.10
7341;DHT22;6870;50.944;6.932;2023-12-20T08:13:39;19.30;38.50
7341;DHT22;6870;50.944;6.932;2023-12-20T08:16:07;19.80;39.20
7341;DHT22;6870;50.944;6.932;2023-12-20T08:18:35;19.60;38.60
7341;DHT22;6870;50.944;6.932;2023-12-20T08:21:04;19.50;38.10
7341;DHT22;6870;50.944;6.932;2023-12-20T08:23:34;19.50;38.80
7341;DHT22;6870;50.944;6.932;2023-12-20T08:26:05;19.70;38.70
7341;DHT22;6870;50.944;6.932;2023-12-20T08:28:33;19.80;38.70
7341;DHT22;6870;50.944;6.932;2023-12-20T08:31:02;19.70;39.30
7341;DHT22;6870;50.944;6.932;2023-12-20T08:33:30;19.80;39.10
7341;DHT22;6870;50.944;6.932;2023-12-20T08:35:58;19.70;38.90
7341;DHT22;6870;50.944;6.932;2023-12-20T08:38:26;19.90;38.90
7341;DHT22;6870;50.944;6.932;2023-12-20T08:40:54;19.50;38.50
7341;DHT22;6870;50.944;6.932;2023-12-20T08:43:24;19.70;38.30
7341;DHT22;6870;50.944;6.932;2023-12-20T08:45:52;19.70;38.60
7341;DHT22;6870;50.944;6.932;2023-12-20T08:48:20;19.90;38.40
7341;DHT22;6870;50.944;6.932;2023-12-20T08:50:48;19.90;38.50
7341;DHT22;6870;50.944;6.932;2023-12-20T08:53:18;20.00;38.90
7341;DHT22;6870;50.944;6.932;2023-12-20T08:55:47;19.80;38.10
7341;DHT22;6870;50.944;6.932;2023-12-20T08:58:15;19.90;38.50
7341;DHT22;6870;50.944;6.932;2023-12-20T09:00:45;19.90;37.80
7341;DHT22;6870;50.944;6.932;2023-12-20T09:03:13;19.70;37.50
7341;DHT22;6870;50.944;6.932;2023-12-20T09:05:41;19.70;37.50
7341;DHT22;6870;50.944;6.932;2023-12-20T09:08:09;20.10;38.30
7341;DHT22;6870;50.944;6.932;2023-12-20T09:10:37;20.00;37.00
7341;DHT22;6870;50.944;6.932;2023-12-20T09:13:05;19.90;37.90
7341;DHT22;6870;50.944;6.932;2023-12-20T09:15:33;19.80;38.00
7341;DHT22;6870;50.944;6.932;2023-12-20T09:18:04;19.60;38.00
7341;DHT22;6870;50.944;6.932;2023-12-20T09:20:33;19.70;38.20
7341;DHT22;6870;50.944;6.932;2023-12-20T09:23:01;19.90;38.30
7341;DHT22;6870;50.944;6.932;2023-12-20T09:25:29;19.70;38.10
7341;DHT22;6870;50.944;6.932;2023-12-20T09:27:57;19.80;38.60
7341;DHT22;6870;50.944;6.932;2023-12-20T09:30:25;19.70;38.40
7341;DHT22;6870;50.944;6.932;2023-12-20T09:32:54;20.10;38.60
7341;DHT22;6870;50.944;6.932;2023-12-20T09:35:23;20.10;38.80
7341;DHT22;6870;50.944;6.932;2023-12-20T09:37:53;20.10;39.10
7341;DHT22;6870;50.944;6.932;2023-12-20T09:40:22;20.10;39.50
7341;DHT22;6870;50.944;6.932;2023-12-20T09:42:57;20.00;39.20
7341;DHT22;6870;50.944;6.932;2023-12-20T09:45:25;20.00;38.70
7341;DHT22;6870;50.944;6.932;2023-12-20T09:47:54;20.10;39.10
7341;DHT22;6870;50.944;6.932;2023-12-20T09:50:23;20.10;39.30
7341;DHT22;6870;50.944;6.932;2023-12-20T09:52:53;20.50;40.00
7341;DHT22;6870;50.944;6.932;2023-12-20T09:55:25;20.10;38.40
7341;DHT22;6870;50.944;6.932;2023-12-20T09:57:55;20.30;38.70
7341;DHT22;6870;50.944;6.932;2023-12-20T10:00:23;19.80;38.40
7341;DHT22;6870;50.944;6.932;2023-12-20T10:02:56;20.40;37.60
7341;DHT22;6870;50.944;6.932;2023-12-20T10:05:28;20.20;38.60
7341;DHT22;6870;50.944;6.932;2023-12-20T10:07:58;20.40;39.60
7341;DHT22;6870;50.944;6.932;2023-12-20T10:10:27;20.10;38.50
7341;DHT22;6870;50.944;6.932;2023-12-20T10:13:11;20.10;38.70
7341;DHT22;6870;50.944;6.932;2023-12-20T10:15:40;20.30;39.50
7341;DHT22;6870;50.944;6.932;2023-12-20T10:18:09;20.50;38.80
7341;DHT22;6870;50.944;6.932;2023-12-20T10:20:40;20.40;38.20
7341;DHT22;6870;50.944;6.932;2023-12-20T10:23:11;20.30;38.90
7341;DHT22;6870;50.944;6.932;2023-12-20T10:25:40;20.60;38.80
7341;DHT22;6870;50.944;6.932;2023-12-20T10:28:09;20.30;38.20
7341;DHT22;6870;50.944;6.932;2023-12-20T10:30:40;20.30;38.60
7341;DHT22;6870;50.944;6.932;2023-12-20T10:33:09;20.20;37.30
7341;DHT22;6870;50.944;6.932;2023-12-20T10:35:40;20.50;37.80
7341;DHT22;6870;50.944;6.932;2023-12-20T10:38:14;20.40;37.00
7341;DHT22;6870;50.944;6.932;2023-12-20T10:40:42;20.50;38.20
7341;DHT22;6870;50.944;6.932;2023-12-20T10:43:13;20.70;37.00
7341;DHT22;6870;50.944;6.932;2023-12-20T10:45:43;20.30;37.00
7341;DHT22;6870;50.944;6.932;2023-12-20T10:48:11;20.50;37.20
7341;DHT22;6870;50.944;6.932;2023-12-20T10:50:41;20.60;37.20
7341;DHT22;6870;50.944;6.932;2023-12-20T10:53:09;20.40;37.30
7341;DHT22;6870;50.944;6.932;2023-12-20T10:55:39;20.30;36.10
7341;DHT22;6870;50.944;6.932;2023-12-20T10:58:08;20.50;36.50
7341;DHT22;6870;50.944;6.932;2023-12-20T11:00:39;20.20;36.80
7341;DHT22;6870;50.944;6.932;2023-12-20T11:03:10;20.20;35.60
7341;DHT22;6870;50.944;6.932;2023-12-20T11:05:44;20.10;35.70
7341;DHT22;6870;50.944;6.932;2023-12-20T11:08:20;20.40;37.20
7341;DHT22;6870;50.944;6.932;2023-12-20T11:10:59;20.40;36.90
7341;DHT22;6870;50.944;6.932;2023-12-20T11:13:34;20.30;35.40
7341;DHT22;6870;50.944;6.932;2023-12-20T11:16:04;20.80;37.70
7341;DHT22;6870;50.944;6.932;2023-12-20T11:18:34;20.30;36.50
7341;DHT22;6870;50.944;6.932;2023-12-20T11:21:04;20.50;36.90
7341;DHT22;6870;50.944;6.932;2023-12-20T11:23:33;20.40;36.00
7341;DHT22;6870;50.944;6.932;2023-12-20T11:26:02;20.50;36.80
7341;DHT22;6870;50.944;6.932;2023-12-20T11:28:31;20.30;37.20
7341;DHT22;6870;50.944;6.932;2023-12-20T11:31:01;20.60;37.10
7341;DHT22;6870;50.944;6.932;2023-12-20T11:33:31;20.40;36.50
7341;DHT22;6870;50.944;6.932;2023-12-20T11:36:14;20.20;37.30
7341;DHT22;6870;50.944;6.932;2023-12-20T11:38:54;20.60;37.90
7341;DHT22;6870;50.944;6.932;2023-12-20T11:41:24;20.60;37.30
7341;DHT22;6870;50.944;6.932;2023-12-20T11:43:54;20.40;36.50
7341;DHT22;6870;50.944;6.932;2023-12-20T11:46:22;20.30;36.80
7341;DHT22;6870;50.944;6.932;2023-12-20T11:48:51;20.30;37.30
7341;DHT22;6870;50.944;6.932;2023-12-20T11:51:21;20.30;37.10
7341;DHT22;6870;50.944;6.932;2023-12-20T11:53:51;20.40;37.80
7341;DHT22;6870;50.944;6.932;2023-12-20T11:56:20;20.50;38.10
7341;DHT22;6870;50.944;6.932;2023-12-20T11:58:51;20.40;37.30
7341;DHT22;6870;50.944;6.932;2023-12-20T12:01:19;20.60;37.80
7341;DHT22;6870;50.944;6.932;2023-12-20T12:03:48;20.30;38.20
7341;DHT22;6870;50.944;6.932;2023-12-20T12:06:16;20.60;37.10
7341;DHT22;6870;50.944;6.932;2023-12-20T12:08:46;20.30;37.40
7341;DHT22;6870;50.944;6.932;2023-12-20T12:11:14;20.40;37.40
7341;DHT22;6870;50.944;6.932;2023-12-20T12:13:42;20.50;38.00
7341;DHT22;6870;50.944;6.932;2023-12-20T12:16:10;20.90;38.30
7341;DHT22;6870;50.944;6.932;2023-12-20T12:18:38;20.40;37.70
7341;DHT22;6870;50.944;6.932;2023-12-20T12:21:11;20.30;37.80
7341;DHT22;6870;50.944;6.932;2023-12-20T12:23:50;20.20;37.20
7341;DHT22;6870;50.944;6.932;2023-12-20T12:26:18;20.90;37.20
7341;DHT22;6870;50.944;6.932;2023-12-20T12:28:46;20.30;37.40
7341;DHT22;6870;50.944;6.932;2023-12-20T12:31:14;20.60;37.40
7341;DHT22;6870;50.944;6.932;2023-12-20T12:33:43;20.60;36.50
7341;DHT22;6870;50.944;6.932;2023-12-20T12:36:12;20.60;36.90
7341;DHT22;6870;50.944;6.932;2023-12-20T12:38:42;20.60;36.90
7341;DHT22;6870;50.944;6.932;2023-12-20T12:41:14;20.40;36.80
7341;DHT22;6870;50.944;6.932;2023-12-20T12:43:43;20.40;37.70
7341;DHT22;6870;50.944;6.932;2023-12-20T12:46:11;20.30;36.40
7341;DHT22;6870;50.944;6.932;2023-12-20T12:48:39;20.30;36.90
7341;DHT22;6870;50.944;6.932;2023-12-20T12:51:11;20.40;37.00
7341;DHT22;6870;50.944;6.932;2023-12-20T12:53:40;20.80;37.30
7341;DHT22;6870;50.944;6.932;2023-12-20T12:56:08;20.60;36.50
7341;DHT22;6870;50.944;6.932;2023-12-20T12:58:37;20.50;36.20
7341;DHT22;6870;50.944;6.932;2023-12-20T13:01:06;20.40;36.40
7341;DHT22;6870;50.944;6.932;2023-12-20T13:03:34;20.50;36.70
7341;DHT22;6870;50.944;6.932;2023-12-20T13:06:03;20.30;36.70
7341;DHT22;6870;50.944;6.932;2023-12-20T13:08:32;20.30;36.20
7341;DHT22;6870;50.944;6.932;2023-12-20T13:11:00;20.50;36.90
7341;DHT22;6870;50.944;6.932;2023-12-20T13:13:30;20.70;37.00
7341;DHT22;6870;50.944;6.932;2023-12-20T13:16:00;20.30;36.20
7341;DHT22;6870;50.944;6.932;2023-12-20T13:18:30;20.50;36.70
7341;DHT22;6870;50.944;6.932;2023-12-20T13:20:58;20.30;36.50
7341;DHT22;6870;50.944;6.932;2023-12-20T13:23:30;20.60;36.50
7341;DHT22;6870;50.944;6.932;2023-12-20T13:25:57;20.80;36.60
7341;DHT22;6870;50.944;6.932;2023-12-20T13:28:25;20.40;36.20
7341;DHT22;6870;50.944;6.932;2023-12-20T13:30:54;20.50;36.30
7341;DHT22;6870;50.944;6.932;2023-12-20T13:33:23;20.70;36.60
7341;DHT22;6870;50.944;6.932;2023-12-20T13:35:51;20.30;36.00
7341;DHT22;6870;50.944;6.932;2023-12-20T13:38:20;20.50;34.90
7341;DHT22;6870;50.944;6.932;2023-12-20T13:40:48;20.20;36.00
7341;DHT22;6870;50.944;6.932;2023-12-20T13:43:16;20.20;36.00
7341;DHT22;6870;50.944;6.932;2023-12-20T13:45:47;20.70;36.10
7341;DHT22;6870;50.944;6.932;2023-12-20T13:48:15;20.70;36.30
7341;DHT22;6870;50.944;6.932;2023-12-20T13:50:45;20.70;35.80
7341;DHT22;6870;50.944;6.932;2023-12-20T13:53:13;20.50;35.60
7341;DHT22;6870;50.944;6.932;2023-12-20T13:55:41;20.60;36.00
7341;DHT22;6870;50.944;6.932;2023-12-20T13:58:09;20.70;36.10
7341;DHT22;6870;50.944;6.932;2023-12-20T14:00:37;20.40;35.90
7341;DHT22;6870;50.944;6.932;2023-12-20T14:03:06;20.70;33.90
7341;DHT22;6870;50.944;6.932;2023-12-20T14:05:35;20.30;35.60
7341;DHT22;6870;50.944;6.932;2023-12-20T14:08:06;20.20;35.70
7341;DHT22;6870;50.944;6.932;2023-12-20T14:10:35;20.70;36.30
7341;DHT22;6870;50.944;6.932;2023-12-20T14:13:03;20.30;35.80
7341;DHT22;6870;50.944;6.932;2023-12-20T14:15:32;20.30;35.20
7341;DHT22;6870;50.944;6.932;2023-12-20T14:18:04;20.30;36.10
7341;DHT22;6870;50.944;6.932;2023-12-20T14:20:34;20.60;34.80
7341;DHT22;6870;50.944;6.932;2023-12-20T14:23:04;20.30;35.60
7341;DHT22;6870;50.944;6.932;2023-12-20T14:25:33;20.60;36.00
7341;DHT22;6870;50.944;6.932;2023-12-20T14:28:17;20.50;35.60
7341;DHT22;6870;50.944;6.932;2023-12-20T14:30:45;20.60;36.00
7341;DHT22;6870;50.944;6.932;2023-12-20T14:33:15;20.80;35.60
7341;DHT22;6870;50.944;6.932;2023-12-20T14:35:43;20.40;35.50
7341;DHT22;6870;50.944;6.932;2023-12-20T14:38:13;20.40;35.10
7341;DHT22;6870;50.944;6.932;2023-12-20T14:40:42;20.70;35.00
7341;DHT22;6870;50.944;6.932;2023-12-20T14:43:10;20.40;35.60
7341;DHT22;6870;50.944;6.932;2023-12-20T14:45:38;20.60;35.80
7341;DHT22;6870;50.944;6.932;2023-12-20T14:48:07;20.50;35.80
7341;DHT22;6870;50.944;6.932;2023-12-20T14:50:36;20.30;35.90
7341;DHT22;6870;50.944;6.932;2023-12-20T14:53:05;20.40;35.70
7341;DHT22;6870;50.944;6.932;2023-12-20T14:55:34;20.70;36.10
7341;DHT22;6870;50.944;6.932;2023-12-20T14:58:03;20.40;35.90
7341;DHT22;6870;50.944;6.932;2023-12-20T15:00:32;20.80;36.60
7341;DHT22;6870;50.944;6.932;2023-12-20T15:03:01;20.40;35.90
7341;DHT22;6870;50.944;6.932;2023-12-20T15:05:31;20.80;36.50
7341;DHT22;6870;50.944;6.932;2023-12-20T15:07:59;20.40;35.60
7341;DHT22;6870;50.944;6.932;2023-12-20T15:10:27;20.80;35.70
7341;DHT22;6870;50.944;6.932;2023-12-20T15:12:59;20.40;35.30
7341;DHT22;6870;50.944;6.932;2023-12-20T15:15:27;20.60;35.70
7341;DHT22;6870;50.944;6.932;2023-12-20T15:17:55;20.40;35.80
7341;DHT22;6870;50.944;6.932;2023-12-20T15:20:24;20.50;35.40
7341;DHT22;6870;50.944;6.932;2023-12-20T15:22:54;20.70;35.90
7341;DHT22;6870;50.944;6.932;2023-12-20T15:25:25;20.90;35.40
7341;DHT22;6870;50.944;6.932;2023-12-20T15:27:53;20.70;34.80
7341;DHT22;6870;50.944;6.932;2023-12-20T15:30:23;20.50;34.20
7341;DHT22;6870;50.944;6.932;2023-12-20T15:32:57;20.80;34.50
7341;DHT22;6870;50.944;6.932;2023-12-20T15:35:25;21.00;34.70
7341;DHT22;6870;50.944;6.932;2023-12-20T15:37:56;20.90;34.90
7341;DHT22;6870;50.944;6.932;2023-12-20T15:40:25;21.20;35.00
7341;DHT22;6870;50.944;6.932;2023-12-20T15:42:53;20.80;34.50
7341;DHT22;6870;50.944;6.932;2023-12-20T15:45:23;20.60;34.50
7341;DHT22;6870;50.944;6.932;2023-12-20T15:47:51;20.50;34.40
7341;DHT22;6870;50.944;6.932;2023-12-20T15:50:19;20.80;34.60
7341;DHT22;6870;50.944;6.932;2023-12-20T15:52:48;20.70;34.20
7341;DHT22;6870;50.944;6.932;2023-12-20T15:55:16;21.10;34.40
7341;DHT22;6870;50.944;6.932;2023-12-20T15:57:44;20.90;34.50
7341;DHT22;6870;50.944;6.932;2023-12-20T16:00:21;21.10;34.60
7341;DHT22;6870;50.944;6.932;2023-12-20T16:02:53;20.80;34.20
7341;DHT22;6870;50.944;6.932;2023-12-20T16:05:24;20.70;33.90
7341;DHT22;6870;50.944;6.932;2023-12-20T16:07:54;20.90;34.10
7341;DHT22;6870;50.944;6.932;2023-12-20T16:10:25;20.80;34.30
7341;DHT22;6870;50.944;6.932;2023-12-20T16:12:53;21.00;34.40
7341;DHT22;6870;50.944;6.932;2023-12-20T16:15:23;20.70;33.60